Private Wetterstation Wechselburg
Wetterdaten: Woche 03.10.22 - 09.10.22 (KW40)
Datum Zeit Temp. +2m Bodentemp. Temp.+5cm Temp. Wind Windchill X Diff Temp. Feuchte +2m Feuchte +5cm Luftdruck Regen Wind Richtung Sonnenschein Taupunkt Windchill Windben
03.10.2022 00:00 10,4 C 14,5 C 9,6 C 10,2 C 9,9 C 0,0 C 88 % 95 % 1019,6 hPa 0,0 l/m 0,0 km/h (0 Bft) N 0,00 h 8,5 C 9,9 C 0,0 km/h (0 Bft)
03.10.2022 01:00 10,8 C 14,5 C 9,8 C 10,7 C 10,3 C 0,0 C 88 % 94 % 1019,9 hPa 0,0 l/m 0,1 km/h (0 Bft) N 0,00 h 8,8 C 10,3 C 0,2 km/h (0 Bft)
03.10.2022 02:00 11,1 C 14,4 C 9,9 C 11,0 C 10,9 C 0,0 C 86 % 94 % 1020,1 hPa 0,0 l/m 0,2 km/h (0 Bft) N 0,00 h 8,9 C 10,9 C 0,9 km/h (0 Bft)
03.10.2022 03:00 11,1 C 14,4 C 10,0 C 11,1 C 10,9 C 0,0 C 86 % 93 % 1020,9 hPa 0,0 l/m 0,2 km/h (0 Bft) N 0,00 h 8,8 C 10,9 C 0,6 km/h (0 Bft)
03.10.2022 04:00 10,9 C 14,4 C 10,0 C 10,9 C 10,8 C 0,0 C 86 % 93 % 1020,8 hPa 0,0 l/m 0,1 km/h (0 Bft) N 0,00 h 8,7 C 10,8 C 1,8 km/h (1 Bft)
03.10.2022 05:00 10,8 C 14,4 C 10,0 C 10,9 C 10,9 C 0,0 C 86 % 93 % 1021,3 hPa 0,0 l/m 0,1 km/h (0 Bft) N 0,00 h 8,6 C 10,9 C 0,6 km/h (0 Bft)
03.10.2022 06:00 10,5 C 14,5 C 9,7 C 10,4 C 10,1 C 0,0 C 87 % 93 % 1021,4 hPa 0,0 l/m 0,2 km/h (0 Bft) N 0,00 h 8,4 C 10,1 C 0,3 km/h (0 Bft)
03.10.2022 07:00 10,0 C 14,5 C 9,5 C 9,9 C 9,7 C 0,0 C 88 % 94 % 1021,9 hPa 0,0 l/m 0,3 km/h (0 Bft) N 0,00 h 8,1 C 9,7 C 1,0 km/h (0 Bft)
03.10.2022 08:00 9,9 C 14,5 C 9,9 C 10,2 C 10,2 C 0,3 C 88 % 94 % 1022,0 hPa 0,0 l/m 0,4 km/h (0 Bft) N 0,00 h 8,0 C 10,2 C 0,5 km/h (0 Bft)
03.10.2022 09:00 10,3 C 14,4 C 10,6 C 11,4 C 11,4 C 1,1 C 88 % 93 % 1022,1 hPa 0,0 l/m 0,8 km/h (0 Bft) S-SO 0,00 h 8,4 C 11,4 C 1,2 km/h (1 Bft)
03.10.2022 10:00 11,3 C 14,3 C 11,4 C 12,7 C 12,7 C 1,4 C 88 % 92 % 1022,5 hPa 0,0 l/m 1,1 km/h (1 Bft) S 0,00 h 9,3 C 12,7 C 3,1 km/h (1 Bft)
03.10.2022 11:00 12,2 C 14,2 C 12,2 C 13,9 C 13,9 C 1,7 C 87 % 90 % 1022,9 hPa 0,0 l/m 1,3 km/h (1 Bft) SW 0,00 h 10,1 C 13,9 C 1,8 km/h (1 Bft)
03.10.2022 12:00 13,2 C 14,1 C 13,3 C 15,8 C 15,8 C 2,5 C 83 % 86 % 1023,2 hPa 0,0 l/m 0,6 km/h (0 Bft) S-SO 0,00 h 10,5 C 15,8 C 2,7 km/h (1 Bft)
03.10.2022 13:00 14,0 C 14,1 C 13,7 C 16,8 C 16,8 C 2,8 C 78 % 81 % 1023,1 hPa 0,0 l/m 0,6 km/h (0 Bft) W-SW 0,33 h 10,2 C 16,8 C 3,2 km/h (1 Bft)
03.10.2022 14:00 14,4 C 14,2 C 14,3 C 16,9 C 16,9 C 2,5 C 75 % 78 % 1023,0 hPa 0,0 l/m 0,5 km/h (0 Bft) N 0,00 h 10,0 C 16,9 C 1,1 km/h (1 Bft)
03.10.2022 15:00 14,4 C 14,2 C 14,1 C 16,0 C 16,0 C 1,6 C 74 % 77 % 1023,0 hPa 0,0 l/m 0,2 km/h (0 Bft) N 0,00 h 9,8 C 16,0 C 0,4 km/h (0 Bft)
03.10.2022 16:00 14,4 C 14,2 C 14,1 C 15,8 C 15,8 C 1,4 C 75 % 79 % 1023,0 hPa 0,0 l/m 0,1 km/h (0 Bft) N 0,00 h 10,1 C 15,8 C 0,0 km/h (0 Bft)
03.10.2022 17:00 14,3 C 14,2 C 13,4 C 14,7 C 14,7 C 0,4 C 76 % 81 % 1022,7 hPa 0,0 l/m 0,1 km/h (0 Bft) N 0,00 h 10,0 C 14,7 C 0,0 km/h (0 Bft)
03.10.2022 18:00 13,5 C 14,3 C 12,4 C 13,4 C 13,1 C 0,0 C 77 % 83 % 1022,6 hPa 0,0 l/m 0,0 km/h (0 Bft) N 0,00 h 9,6 C 13,1 C 0,0 km/h (0 Bft)
03.10.2022 19:00 13,1 C 14,3 C 12,2 C 13,0 C 12,8 C 0,0 C 79 % 85 % 1022,8 hPa 0,0 l/m 0,0 km/h (0 Bft) N 0,00 h 9,5 C 12,8 C 0,0 km/h (0 Bft)
03.10.2022 20:00 12,3 C 14,8 C 11,3 C 12,0 C 11,3 C 0,0 C 83 % 89 % 1023,1 hPa 0,0 l/m 0,0 km/h (0 Bft) N 0,00 h 9,5 C 11,3 C 0,0 km/h (0 Bft)
03.10.2022 21:00 11,7 C 14,9 C 11,0 C 11,5 C 11,1 C 0,0 C 87 % 91 % 1022,9 hPa 0,0 l/m 0,0 km/h (0 Bft) N 0,00 h 9,6 C 11,1 C 0,0 km/h (0 Bft)
03.10.2022 22:00 11,6 C 14,9 C 10,9 C 11,4 C 11,0 C 0,0 C 87 % 92 % 1022,9 hPa 0,0 l/m 0,0 km/h (0 Bft) N 0,00 h 9,5 C 11,0 C 0,0 km/h (0 Bft)
03.10.2022 23:00 11,5 C 14,8 C 10,8 C 11,3 C 10,9 C 0,0 C 88 % 93 % 1022,7 hPa 0,0 l/m 0,0 km/h (0 Bft) N 0,00 h 9,6 C 10,9 C 0,0 km/h (0 Bft)
04.10.2022 00:00 11,5 C 14,7 C 10,7 C 11,4 C 11,2 C 0,0 C 87 % 93 % 1022,5 hPa 0,0 l/m 0,0 km/h (0 Bft) N 0,00 h 9,5 C 11,2 C 0,0 km/h (0 Bft)
04.10.2022 01:00 11,6 C 14,7 C 10,7 C 11,6 C 11,5 C 0,0 C 87 % 93 % 1022,6 hPa 0,0 l/m 0,0 km/h (0 Bft) N 0,00 h 9,5 C 11,5 C 0,2 km/h (0 Bft)
04.10.2022 02:00 11,5 C 14,7 C 10,6 C 11,5 C 11,4 C 0,0 C 87 % 93 % 1022,4 hPa 0,0 l/m 0,1 km/h (0 Bft) N 0,00 h 9,3 C 11,4 C 0,7 km/h (0 Bft)
04.10.2022 03:00 11,3 C 14,7 C 10,4 C 11,2 C 11,0 C 0,0 C 86 % 92 % 1022,2 hPa 0,0 l/m 0,0 km/h (0 Bft) N 0,00 h 9,1 C 11,0 C 0,0 km/h (0 Bft)
04.10.2022 04:00 11,1 C 14,6 C 10,3 C 11,1 C 11,0 C 0,0 C 86 % 93 % 1022,3 hPa 0,0 l/m 0,0 km/h (0 Bft) N 0,00 h 8,9 C 11,0 C 0,0 km/h (0 Bft)
04.10.2022 05:00 11,0 C 14,7 C 10,0 C 10,9 C 10,5 C 0,0 C 86 % 92 % 1022,1 hPa 0,0 l/m 0,0 km/h (0 Bft) N 0,00 h 8,8 C 10,5 C 0,0 km/h (0 Bft)
04.10.2022 06:00 10,1 C 14,8 C 8,9 C 9,8 C 9,1 C 0,0 C 86 % 93 % 1022,1 hPa 0,0 l/m 0,0 km/h (0 Bft) N 0,00 h 7,9 C 9,1 C 0,0 km/h (0 Bft)
04.10.2022 07:00 9,6 C 14,9 C 8,6 C 9,6 C 9,1 C 0,2 C 87 % 94 % 1022,4 hPa 0,0 l/m 0,0 km/h (0 Bft) N 0,17 h 7,6 C 9,1 C 0,0 km/h (0 Bft)
04.10.2022 08:00 10,0 C 14,7 C 9,6 C 11,6 C 11,6 C 1,5 C 88 % 94 % 1022,1 hPa 0,0 l/m 0,2 km/h (0 Bft) N 0,25 h 8,1 C 11,6 C 0,6 km/h (0 Bft)
04.10.2022 09:00 11,4 C 14,5 C 11,2 C 13,5 C 13,5 C 2,1 C 88 % 93 % 1022,6 hPa 0,0 l/m 0,1 km/h (0 Bft) N 0,08 h 9,5 C 13,5 C 0,4 km/h (0 Bft)
04.10.2022 10:00 12,8 C 14,4 C 12,5 C 15,2 C 15,2 C 2,5 C 85 % 91 % 1023,0 hPa 0,0 l/m 0,0 km/h (0 Bft) N 0,00 h 10,3 C 15,2 C 0,2 km/h (0 Bft)
04.10.2022 11:00 13,6 C 14,4 C 13,6 C 16,1 C 16,1 C 2,5 C 82 % 88 % 1022,9 hPa 0,0 l/m 0,1 km/h (0 Bft) N 0,00 h 10,6 C 16,1 C 0,5 km/h (0 Bft)
04.10.2022 12:00 14,3 C 14,4 C 14,0 C 17,1 C 17,1 C 2,8 C 80 % 86 % 1023,0 hPa 0,0 l/m 0,1 km/h (0 Bft) N 0,08 h 10,8 C 17,1 C 0,0 km/h (0 Bft)
04.10.2022 13:00 17,1 C 14,4 C 14,3 C 23,7 C 23,7 C 6,5 C 73 % 84 % 1022,5 hPa 0,0 l/m 0,3 km/h (0 Bft) N 1,00 h 12,2 C 23,7 C 0,2 km/h (0 Bft)
04.10.2022 14:00 18,7 C 14,5 C 15,4 C 25,0 C 25,0 C 6,3 C 62 % 78 % 1022,1 hPa 0,0 l/m 0,3 km/h (0 Bft) N 1,00 h 11,2 C 25,0 C 1,1 km/h (0 Bft)
04.10.2022 15:00 17,7 C 14,6 C 16,2 C 24,5 C 24,5 C 6,7 C 63 % 75 % 1021,7 hPa 0,0 l/m 0,5 km/h (0 Bft) SO 1,00 h 10,5 C 24,5 C 1,8 km/h (1 Bft)
04.10.2022 16:00 17,5 C 14,6 C 16,4 C 20,0 C 20,0 C 2,5 C 64 % 74 % 1021,3 hPa 0,0 l/m 0,3 km/h (0 Bft) N 0,43 h 10,6 C 20,0 C 0,6 km/h (0 Bft)
04.10.2022 17:00 17,4 C 14,7 C 15,7 C 17,3 C 17,2 C 0,0 C 63 % 74 % 1021,1 hPa 0,0 l/m 0,3 km/h (0 Bft) N 0,00 h 10,4 C 17,2 C 0,5 km/h (0 Bft)
04.10.2022 18:00 15,5 C 14,9 C 13,2 C 15,2 C 14,5 C 0,0 C 69 % 81 % 1020,6 hPa 0,0 l/m 0,0 km/h (0 Bft) N 0,00 h 9,8 C 14,5 C 0,0 km/h (0 Bft)
04.10.2022 19:00 12,7 C 15,1 C 10,9 C 12,1 C 10,9 C 0,0 C 77 % 87 % 1021,0 hPa 0,0 l/m 0,0 km/h (0 Bft) N 0,00 h 8,7 C 10,9 C 0,0 km/h (0 Bft)
04.10.2022 20:00 10,7 C 15,3 C 9,3 C 10,3 C 9,3 C 0,0 C 82 % 90 % 1021,2 hPa 0,0 l/m 0,0 km/h (0 Bft) N 0,00 h 7,8 C 9,3 C 0,0 km/h (0 Bft)
04.10.2022 21:00 9,7 C 15,3 C 8,5 C 9,4 C 8,7 C 0,0 C 85 % 92 % 1021,1 hPa 0,0 l/m 0,0 km/h (0 Bft) N 0,00 h 7,3 C 8,7 C 0,0 km/h (0 Bft)
04.10.2022 22:00 9,1 C 15,2 C 8,0 C 8,9 C 8,4 C 0,0 C 87 % 93 % 1021,6 hPa 0,0 l/m 0,0 km/h (0 Bft) N 0,00 h 7,0 C 8,4 C 0,0 km/h (0 Bft)
04.10.2022 23:00 8,8 C 15,1 C 7,8 C 8,6 C 8,2 C 0,0 C 87 % 93 % 1021,6 hPa 0,0 l/m 0,0 km/h (0 Bft) N 0,00 h 6,8 C 8,2 C 0,0 km/h (0 Bft)
05.10.2022 00:00 8,7 C 15,1 C 7,8 C 8,6 C 8,4 C 0,0 C 88 % 94 % 1021,6 hPa 0,0 l/m 0,0 km/h (0 Bft) N 0,00 h 6,9 C 8,4 C 0,0 km/h (0 Bft)
05.10.2022 01:00 8,5 C 15,0 C 7,8 C 8,4 C 8,1 C 0,0 C 88 % 94 % 1020,8 hPa 0,0 l/m 0,0 km/h (0 Bft) N 0,00 h 6,6 C 8,1 C 0,0 km/h (0 Bft)
05.10.2022 02:00 8,4 C 14,8 C 7,8 C 8,3 C 8,0 C 0,0 C 88 % 94 % 1020,3 hPa 0,0 l/m 0,0 km/h (0 Bft) N 0,00 h 6,5 C 8,0 C 0,0 km/h (0 Bft)
05.10.2022 03:00 8,2 C 14,8 C 7,3 C 8,0 C 7,7 C 0,0 C 88 % 93 % 1020,1 hPa 0,0 l/m 0,0 km/h (0 Bft) N 0,00 h 6,3 C 7,7 C 0,0 km/h (0 Bft)
05.10.2022 04:00 7,6 C 14,8 C 6,6 C 7,4 C 6,9 C 0,0 C 88 % 94 % 1020,1 hPa 0,0 l/m 0,0 km/h (0 Bft) N 0,00 h 5,8 C 6,9 C 0,0 km/h (0 Bft)
05.10.2022 05:00 6,7 C 14,7 C 5,9 C 6,4 C 5,8 C 0,0 C 88 % 94 % 1019,9 hPa 0,0 l/m 0,0 km/h (0 Bft) N 0,00 h 4,9 C 5,8 C 0,0 km/h (0 Bft)
05.10.2022 06:00 5,9 C 14,5 C 5,2 C 5,6 C 5,1 C 0,0 C 88 % 94 % 1020,2 hPa 0,0 l/m 0,0 km/h (0 Bft) N 0,00 h 4,1 C 5,1 C 0,0 km/h (0 Bft)
05.10.2022 07:00 5,3 C 14,4 C 4,8 C 5,1 C 4,7 C 0,0 C 89 % 94 % 1020,5 hPa 0,0 l/m 0,0 km/h (0 Bft) N 0,00 h 3,6 C 4,7 C 0,0 km/h (0 Bft)
05.10.2022 08:00 5,2 C 14,3 C 5,3 C 6,0 C 6,0 C 0,9 C 89 % 95 % 1020,3 hPa 0,0 l/m 0,0 km/h (0 Bft) N 0,00 h 3,5 C 6,0 C 0,0 km/h (0 Bft)
05.10.2022 09:00 6,3 C 14,2 C 7,7 C 9,1 C 9,1 C 2,7 C 88 % 95 % 1020,1 hPa 0,0 l/m 0,0 km/h (0 Bft) N 0,17 h 4,6 C 9,1 C 0,0 km/h (0 Bft)
05.10.2022 10:00 10,0 C 14,0 C 11,9 C 14,8 C 14,8 C 4,8 C 89 % 95 % 1019,7 hPa 0,0 l/m 1,0 km/h (0 Bft) SW 1,00 h 8,3 C 14,8 C 3,0 km/h (1 Bft)
05.10.2022 11:00 15,9 C 13,9 C 15,7 C 19,0 C 19,0 C 3,0 C 83 % 88 % 1018,6 hPa 0,0 l/m 1,3 km/h (1 Bft) SW 0,25 h 13,1 C 19,0 C 2,1 km/h (1 Bft)
05.10.2022 12:00 18,0 C 14,0 C 16,8 C 20,2 C 20,2 C 2,2 C 70 % 77 % 1018,7 hPa 0,0 l/m 0,8 km/h (0 Bft) SW 0,00 h 12,5 C 20,2 C 2,8 km/h (1 Bft)
05.10.2022 13:00 19,1 C 14,1 C 17,5 C 22,6 C 22,6 C 3,5 C 67 % 74 % 1018,6 hPa 0,0 l/m 2,1 km/h (1 Bft) S-SO 0,58 h 12,9 C 22,6 C 5,4 km/h (1 Bft)
05.10.2022 14:00 19,9 C 14,4 C 18,7 C 22,5 C 22,5 C 2,6 C 65 % 72 % 1018,2 hPa 0,0 l/m 3,4 km/h (1 Bft) S 0,27 h 13,1 C 22,5 C 7,4 km/h (2 Bft)
05.10.2022 15:00 19,8 C 14,6 C 18,8 C 22,5 C 22,5 C 2,6 C 65 % 70 % 1017,8 hPa 0,0 l/m 2,7 km/h (1 Bft) S 0,08 h 12,9 C 22,5 C 3,7 km/h (1 Bft)
05.10.2022 16:00 19,9 C 14,8 C 18,9 C 21,0 C 21,0 C 1,1 C 63 % 68 % 1017,6 hPa 0,0 l/m 2,1 km/h (1 Bft) S 0,00 h 12,6 C 21,0 C 5,0 km/h (1 Bft)
05.10.2022 17:00 19,6 C 15,1 C 18,4 C 19,8 C 19,8 C 0,2 C 65 % 71 % 1017,2 hPa 0,0 l/m 2,0 km/h (1 Bft) SO 0,00 h 12,8 C 19,8 C 3,0 km/h (1 Bft)
05.10.2022 18:00 18,5 C 15,2 C 16,6 C 18,2 C 17,8 C 0,0 C 69 % 77 % 1017,3 hPa 0,0 l/m 0,9 km/h (0 Bft) O-SO 0,00 h 12,7 C 17,8 C 2,3 km/h (1 Bft)
05.10.2022 19:00 16,5 C 15,3 C 14,3 C 16,0 C 15,2 C 0,0 C 74 % 83 % 1017,4 hPa 0,0 l/m 0,0 km/h (0 Bft) N 0,00 h 11,8 C 15,2 C 0,0 km/h (0 Bft)
05.10.2022 20:00 16,0 C 15,5 C 14,2 C 15,9 C 15,5 C 0,0 C 78 % 86 % 1017,5 hPa 0,0 l/m 0,7 km/h (0 Bft) O-NO 0,00 h 12,2 C 15,5 C 2,2 km/h (1 Bft)
05.10.2022 21:00 16,8 C 15,5 C 15,0 C 16,7 C 16,4 C 0,0 C 76 % 84 % 1018,0 hPa 0,0 l/m 2,3 km/h (1 Bft) S-SO 0,00 h 12,6 C 16,4 C 3,8 km/h (1 Bft)
05.10.2022 22:00 16,4 C 15,6 C 14,6 C 16,1 C 15,5 C 0,0 C 76 % 84 % 1018,4 hPa 0,0 l/m 0,1 km/h (0 Bft) N 0,00 h 12,2 C 15,5 C 0,8 km/h (0 Bft)
05.10.2022 23:00 16,5 C 15,7 C 14,9 C 16,3 C 15,8 C 0,0 C 77 % 84 % 1018,8 hPa 0,0 l/m 0,6 km/h (0 Bft) SO 0,00 h 12,4 C 15,8 C 0,8 km/h (0 Bft)
06.10.2022 00:00 16,8 C 15,7 C 15,3 C 16,6 C 16,3 C 0,0 C 76 % 83 % 1019,0 hPa 0,0 l/m 1,9 km/h (1 Bft) SO 0,00 h 12,6 C 16,3 C 5,2 km/h (1 Bft)
06.10.2022 01:00 16,5 C 15,8 C 14,9 C 16,3 C 16,0 C 0,0 C 77 % 84 % 1019,4 hPa 0,0 l/m 3,0 km/h (1 Bft) S 0,00 h 12,5 C 16,0 C 5,2 km/h (1 Bft)
06.10.2022 02:00 16,1 C 15,8 C 14,4 C 15,9 C 15,4 C 0,0 C 78 % 85 % 1019,8 hPa 0,0 l/m 1,4 km/h (1 Bft) S 0,00 h 12,3 C 15,4 C 2,2 km/h (1 Bft)
06.10.2022 03:00 16,0 C 15,9 C 14,5 C 15,8 C 15,4 C 0,0 C 78 % 85 % 1020,1 hPa 0,0 l/m 1,2 km/h (1 Bft) SO 0,00 h 12,2 C 15,4 C 1,9 km/h (1 Bft)
06.10.2022 04:00 15,8 C 15,9 C 14,4 C 15,6 C 15,3 C 0,0 C 79 % 85 % 1020,0 hPa 0,0 l/m 2,5 km/h (1 Bft) S 0,00 h 12,2 C 15,3 C 5,8 km/h (2 Bft)
06.10.2022 05:00 15,5 C 15,9 C 14,2 C 15,4 C 15,1 C 0,0 C 79 % 86 % 1021,3 hPa 0,0 l/m 0,7 km/h (0 Bft) NO 0,00 h 12,0 C 15,1 C 1,2 km/h (1 Bft)
06.10.2022 06:00 15,9 C 15,9 C 14,8 C 16,0 C 16,0 C 0,1 C 80 % 85 % 1021,3 hPa 0,0 l/m 0,5 km/h (0 Bft) N 0,00 h 12,4 C 16,0 C 1,0 km/h (0 Bft)
06.10.2022 07:00 16,1 C 16,0 C 15,1 C 16,1 C 16,0 C 0,1 C 79 % 84 % 1022,0 hPa 0,0 l/m 0,3 km/h (0 Bft) S 0,00 h 12,5 C 16,0 C 0,3 km/h (0 Bft)
06.10.2022 08:00 14,1 C 16,1 C 13,3 C 13,8 C 13,1 C 0,0 C 82 % 88 % 1024,1 hPa 0,0 l/m 0,4 km/h (0 Bft) SW 0,00 h 11,0 C 13,1 C 1,0 km/h (0 Bft)
06.10.2022 09:00 13,6 C 16,0 C 13,1 C 14,1 C 14,1 C 0,5 C 81 % 86 % 1025,1 hPa 0,0 l/m 0,3 km/h (0 Bft) N 0,00 h 10,4 C 14,1 C 0,6 km/h (0 Bft)
06.10.2022 10:00 13,9 C 16,0 C 13,7 C 15,3 C 15,3 C 1,3 C 81 % 85 % 1026,2 hPa 0,0 l/m 0,0 km/h (0 Bft) N 0,00 h 10,7 C 15,3 C 0,0 km/h (0 Bft)
06.10.2022 11:00 14,6 C 15,8 C 13,9 C 15,8 C 15,8 C 1,2 C 77 % 82 % 1026,8 hPa 0,0 l/m 0,2 km/h (0 Bft) N 0,00 h 10,6 C 15,8 C 0,8 km/h (0 Bft)
06.10.2022 12:00 15,7 C 15,8 C 14,8 C 18,6 C 18,6 C 2,9 C 71 % 76 % 1027,4 hPa 0,0 l/m 0,3 km/h (0 Bft) N 0,33 h 10,5 C 18,6 C 0,8 km/h (0 Bft)
06.10.2022 13:00 17,3 C 15,8 C 15,2 C 22,8 C 22,8 C 5,5 C 65 % 72 % 1027,8 hPa 0,0 l/m 0,3 km/h (0 Bft) N 1,00 h 10,6 C 22,8 C 0,8 km/h (0 Bft)
06.10.2022 14:00 18,8 C 15,6 C 16,3 C 25,7 C 25,7 C 6,8 C 58 % 68 % 1027,9 hPa 0,0 l/m 0,3 km/h (0 Bft) N 1,00 h 10,3 C 25,7 C 0,7 km/h (0 Bft)
06.10.2022 15:00 17,7 C 15,7 C 16,4 C 23,8 C 23,8 C 6,1 C 59 % 66 % 1028,3 hPa 0,0 l/m 0,3 km/h (0 Bft) N 1,00 h 9,5 C 23,8 C 0,8 km/h (0 Bft)
06.10.2022 16:00 17,5 C 15,7 C 16,3 C 18,8 C 18,8 C 1,3 C 58 % 66 % 1028,7 hPa 0,0 l/m 0,1 km/h (0 Bft) N 0,00 h 9,1 C 18,8 C 0,6 km/h (0 Bft)
06.10.2022 17:00 17,0 C 15,7 C 15,3 C 16,9 C 16,5 C 0,0 C 58 % 68 % 1028,6 hPa 0,0 l/m 0,0 km/h (0 Bft) N 0,00 h 8,7 C 16,5 C 0,0 km/h (0 Bft)
06.10.2022 18:00 15,2 C 15,8 C 12,8 C 14,7 C 13,8 C 0,0 C 64 % 75 % 1028,6 hPa 0,0 l/m 0,0 km/h (0 Bft) N 0,00 h 8,3 C 13,8 C 0,0 km/h (0 Bft)
06.10.2022 19:00 12,0 C 15,9 C 10,1 C 11,3 C 9,8 C 0,0 C 74 % 84 % 1028,7 hPa 0,0 l/m 0,0 km/h (0 Bft) N 0,00 h 7,5 C 9,8 C 0,0 km/h (0 Bft)
06.10.2022 20:00 9,9 C 16,1 C 8,6 C 9,3 C 8,2 C 0,0 C 81 % 89 % 1029,1 hPa 0,0 l/m 0,0 km/h (0 Bft) N 0,00 h 6,8 C 8,2 C 0,0 km/h (0 Bft)
06.10.2022 21:00 8,6 C 16,0 C 7,6 C 8,1 C 7,3 C 0,0 C 84 % 91 % 1029,6 hPa 0,0 l/m 0,0 km/h (0 Bft) N 0,00 h 6,0 C 7,3 C 0,0 km/h (0 Bft)
06.10.2022 22:00 7,6 C 15,9 C 6,8 C 7,2 C 6,4 C 0,0 C 86 % 92 % 1030,0 hPa 0,0 l/m 0,0 km/h (0 Bft) N 0,00 h 5,3 C 6,4 C 0,0 km/h (0 Bft)
06.10.2022 23:00 6,9 C 15,8 C 6,2 C 6,5 C 5,8 C 0,0 C 86 % 92 % 1029,7 hPa 0,0 l/m 0,0 km/h (0 Bft) N 0,00 h 4,7 C 5,8 C 0,0 km/h (0 Bft)
07.10.2022 00:00 6,2 C 15,6 C 5,5 C 5,8 C 5,1 C 0,0 C 87 % 93 % 1029,7 hPa 0,0 l/m 0,0 km/h (0 Bft) N 0,00 h 4,2 C 5,1 C 0,0 km/h (0 Bft)
07.10.2022 01:00 5,5 C 15,4 C 4,9 C 5,1 C 4,4 C 0,0 C 87 % 93 % 1029,9 hPa 0,0 l/m 0,0 km/h (0 Bft) N 0,00 h 3,5 C 4,4 C 0,0 km/h (0 Bft)
07.10.2022 02:00 5,0 C 15,3 C 4,5 C 4,7 C 4,1 C 0,0 C 88 % 93 % 1029,7 hPa 0,0 l/m 0,0 km/h (0 Bft) N 0,00 h 3,2 C 4,1 C 0,0 km/h (0 Bft)
07.10.2022 03:00 4,5 C 15,2 C 4,0 C 4,1 C 3,4 C 0,0 C 88 % 94 % 1029,0 hPa 0,0 l/m 0,0 km/h (0 Bft) N 0,00 h 2,6 C 3,4 C 0,0 km/h (0 Bft)
07.10.2022 04:00 4,0 C 15,0 C 3,7 C 3,7 C 3,1 C 0,0 C 88 % 94 % 1028,4 hPa 0,0 l/m 0,0 km/h (0 Bft) N 0,00 h 2,2 C 3,1 C 0,0 km/h (0 Bft)
07.10.2022 05:00 3,5 C 14,8 C 3,3 C 3,2 C 2,5 C 0,0 C 88 % 94 % 1028,3 hPa 0,0 l/m 0,0 km/h (0 Bft) N 0,00 h 1,7 C 2,5 C 0,0 km/h (0 Bft)
07.10.2022 06:00 3,0 C 14,6 C 2,9 C 2,7 C 1,9 C 0,0 C 88 % 94 % 1028,0 hPa 0,0 l/m 0,0 km/h (0 Bft) N 0,00 h 1,2 C 1,9 C 0,0 km/h (0 Bft)
07.10.2022 07:00 2,6 C 14,4 C 2,4 C 2,5 C 1,9 C 0,2 C 88 % 94 % 1027,6 hPa 0,0 l/m 0,0 km/h (0 Bft) N 0,08 h 0,8 C 1,9 C 0,0 km/h (0 Bft)
07.10.2022 08:00 2,6 C 14,3 C 2,8 C 4,1 C 4,1 C 1,5 C 89 % 94 % 1027,4 hPa 0,0 l/m 0,0 km/h (0 Bft) N 0,33 h 0,9 C 4,1 C 0,0 km/h (0 Bft)
07.10.2022 09:00 3,7 C 14,3 C 4,6 C 5,5 C 5,5 C 1,8 C 88 % 94 % 1027,3 hPa 0,0 l/m 0,0 km/h (0 Bft) N 0,00 h 1,9 C 5,5 C 0,0 km/h (0 Bft)
07.10.2022 10:00 6,1 C 14,2 C 7,5 C 9,4 C 9,4 C 3,3 C 88 % 95 % 1026,6 hPa 0,0 l/m 0,0 km/h (0 Bft) N 0,58 h 4,3 C 9,4 C 0,0 km/h (0 Bft)
07.10.2022 11:00 9,7 C 14,0 C 10,5 C 12,5 C 12,5 C 2,8 C 89 % 94 % 1026,1 hPa 0,0 l/m 0,0 km/h (0 Bft) N 0,00 h 8,0 C 12,5 C 0,0 km/h (0 Bft)
07.10.2022 12:00 13,7 C 13,9 C 12,8 C 17,2 C 17,2 C 3,5 C 86 % 93 % 1025,5 hPa 0,0 l/m 0,4 km/h (0 Bft) N 0,25 h 11,4 C 17,2 C 1,3 km/h (1 Bft)
07.10.2022 13:00 17,5 C 13,9 C 14,3 C 23,9 C 23,9 C 6,3 C 71 % 84 % 1024,7 hPa 0,0 l/m 0,4 km/h (0 Bft) W-SW 1,00 h 12,1 C 23,9 C 1,5 km/h (1 Bft)
07.10.2022 14:00 19,3 C 14,1 C 15,7 C 24,5 C 24,5 C 5,2 C 60 % 77 % 1023,6 hPa 0,0 l/m 0,2 km/h (0 Bft) N 1,00 h 11,4 C 24,5 C 0,6 km/h (0 Bft)
07.10.2022 15:00 18,9 C 14,3 C 16,6 C 24,4 C 24,4 C 5,6 C 61 % 74 % 1022,3 hPa 0,0 l/m 0,2 km/h (0 Bft) N 0,92 h 11,2 C 24,4 C 0,6 km/h (0 Bft)
07.10.2022 16:00 18,6 C 14,5 C 16,7 C 19,7 C 19,7 C 1,1 C 62 % 73 % 1021,5 hPa 0,0 l/m 0,0 km/h (0 Bft) N 0,00 h 11,2 C 19,7 C 0,0 km/h (0 Bft)
07.10.2022 17:00 17,9 C 14,6 C 15,6 C 17,8 C 17,7 C 0,1 C 65 % 76 % 1020,6 hPa 0,0 l/m 0,0 km/h (0 Bft) N 0,00 h 11,3 C 17,7 C 0,0 km/h (0 Bft)
07.10.2022 18:00 15,6 C 14,9 C 13,0 C 15,1 C 14,2 C 0,0 C 72 % 84 % 1020,3 hPa 0,0 l/m 0,0 km/h (0 Bft) N 0,00 h 10,6 C 14,2 C 0,0 km/h (0 Bft)
07.10.2022 19:00 12,9 C 15,2 C 10,9 C 12,3 C 11,2 C 0,0 C 79 % 89 % 1020,2 hPa 0,0 l/m 0,0 km/h (0 Bft) N 0,00 h 9,4 C 11,2 C 0,0 km/h (0 Bft)
07.10.2022 20:00 11,3 C 15,3 C 9,8 C 10,9 C 10,2 C 0,0 C 83 % 91 % 1020,0 hPa 0,0 l/m 0,0 km/h (0 Bft) N 0,00 h 8,5 C 10,2 C 0,0 km/h (0 Bft)
07.10.2022 21:00 10,8 C 15,2 C 9,6 C 10,6 C 10,3 C 0,0 C 86 % 92 % 1019,8 hPa 0,0 l/m 0,0 km/h (0 Bft) N 0,00 h 8,5 C 10,3 C 0,0 km/h (0 Bft)
07.10.2022 22:00 10,9 C 15,3 C 9,7 C 10,7 C 10,3 C 0,0 C 87 % 93 % 1019,6 hPa 0,0 l/m 0,0 km/h (0 Bft) N 0,00 h 8,7 C 10,3 C 0,0 km/h (0 Bft)
07.10.2022 23:00 10,4 C 15,3 C 9,1 C 10,3 C 10,0 C 0,0 C 87 % 93 % 1019,3 hPa 0,0 l/m 0,0 km/h (0 Bft) N 0,00 h 8,4 C 10,0 C 0,0 km/h (0 Bft)
08.10.2022 00:00 9,7 C 15,3 C 8,6 C 9,5 C 9,2 C 0,0 C 88 % 94 % 1018,4 hPa 0,0 l/m 0,0 km/h (0 Bft) N 0,00 h 7,7 C 9,2 C 0,0 km/h (0 Bft)
08.10.2022 01:00 8,9 C 15,2 C 8,1 C 8,7 C 8,4 C 0,0 C 88 % 94 % 1017,9 hPa 0,0 l/m 0,0 km/h (0 Bft) N 0,00 h 6,9 C 8,4 C 0,0 km/h (0 Bft)
08.10.2022 02:00 8,4 C 15,2 C 8,0 C 8,4 C 8,3 C 0,1 C 88 % 94 % 1017,5 hPa 0,0 l/m 0,0 km/h (0 Bft) N 0,00 h 6,5 C 8,3 C 0,0 km/h (0 Bft)
08.10.2022 03:00 8,3 C 15,1 C 8,0 C 8,4 C 8,4 C 0,2 C 88 % 94 % 1017,0 hPa 0,0 l/m 0,0 km/h (0 Bft) N 0,00 h 6,4 C 8,4 C 0,0 km/h (0 Bft)
08.10.2022 04:00 8,3 C 15,1 C 8,3 C 9,0 C 9,0 C 0,7 C 88 % 94 % 1016,8 hPa 0,0 l/m 0,0 km/h (0 Bft) N 0,00 h 6,4 C 9,0 C 0,0 km/h (0 Bft)
08.10.2022 05:00 8,8 C 15,1 C 9,1 C 10,4 C 10,4 C 1,7 C 88 % 94 % 1016,9 hPa 0,0 l/m 0,0 km/h (0 Bft) N 0,00 h 6,9 C 10,4 C 0,0 km/h (0 Bft)
08.10.2022 06:00 9,7 C 15,0 C 9,7 C 11,1 C 11,1 C 1,4 C 88 % 95 % 1016,7 hPa 0,0 l/m 0,0 km/h (0 Bft) N 0,00 h 7,8 C 11,1 C 0,0 km/h (0 Bft)
08.10.2022 07:00 10,6 C 15,1 C 11,3 C 12,3 C 12,3 C 1,6 C 88 % 94 % 1016,8 hPa 0,0 l/m 0,0 km/h (0 Bft) N 0,47 h 8,8 C 12,3 C 0,0 km/h (0 Bft)
08.10.2022 08:00 11,2 C 15,1 C 12,1 C 12,9 C 12,9 C 1,6 C 88 % 95 % 1017,3 hPa 0,0 l/m 0,0 km/h (0 Bft) N 0,22 h 9,3 C 12,9 C 0,0 km/h (0 Bft)
08.10.2022 09:00 11,9 C 14,9 C 12,8 C 14,4 C 14,4 C 2,5 C 88 % 94 % 1017,8 hPa 0,0 l/m 0,1 km/h (0 Bft) N 0,00 h 10,0 C 14,4 C 0,4 km/h (0 Bft)
08.10.2022 10:00 13,8 C 14,7 C 13,6 C 15,8 C 15,8 C 2,0 C 85 % 89 % 1017,6 hPa 0,0 l/m 0,5 km/h (0 Bft) S 0,00 h 11,3 C 15,8 C 1,7 km/h (1 Bft)
08.10.2022 11:00 14,2 C 14,7 C 13,3 C 15,4 C 15,4 C 1,2 C 77 % 83 % 1017,9 hPa 0,0 l/m 0,1 km/h (0 Bft) N 0,00 h 10,2 C 15,4 C 0,8 km/h (0 Bft)
08.10.2022 12:00 15,2 C 14,7 C 14,2 C 17,6 C 17,6 C 2,4 C 71 % 78 % 1018,1 hPa 0,0 l/m 0,2 km/h (0 Bft) N 0,17 h 10,0 C 17,6 C 0,6 km/h (0 Bft)
08.10.2022 13:00 16,9 C 14,8 C 15,7 C 22,3 C 22,3 C 5,4 C 66 % 73 % 1018,1 hPa 0,0 l/m 0,4 km/h (0 Bft) N 1,00 h 10,5 C 22,3 C 0,8 km/h (0 Bft)
08.10.2022 14:00 16,4 C 14,8 C 15,2 C 17,7 C 17,7 C 1,4 C 66 % 73 % 1018,3 hPa 0,0 l/m 0,2 km/h (0 Bft) N 0,17 h 9,9 C 17,7 C 0,2 km/h (0 Bft)
08.10.2022 15:00 14,7 C 14,9 C 14,1 C 15,1 C 15,1 C 0,4 C 74 % 79 % 1018,6 hPa 0,0 l/m 0,3 km/h (0 Bft) N 0,00 h 10,1 C 15,1 C 1,5 km/h (1 Bft)
08.10.2022 16:00 13,7 C 15,0 C 13,1 C 13,6 C 13,2 C 0,1 C 78 % 83 % 1019,3 hPa 0,0 l/m 0,1 km/h (0 Bft) N 0,00 h 9,9 C 13,2 C 0,2 km/h (0 Bft)
08.10.2022 17:00 13,2 C 15,1 C 12,6 C 13,1 C 12,9 C 0,0 C 80 % 87 % 1019,6 hPa 0,0 l/m 0,0 km/h (0 Bft) N 0,00 h 9,9 C 12,9 C 0,0 km/h (0 Bft)
08.10.2022 18:00 12,7 C 15,3 C 11,7 C 12,5 C 12,0 C 0,0 C 82 % 89 % 1020,4 hPa 0,0 l/m 0,0 km/h (0 Bft) N 0,00 h 9,8 C 12,0 C 0,0 km/h (0 Bft)
08.10.2022 19:00 11,6 C 15,2 C 10,6 C 11,2 C 10,5 C 0,0 C 82 % 88 % 1021,5 hPa 0,0 l/m 0,1 km/h (0 Bft) N 0,00 h 8,5 C 10,5 C 0,1 km/h (0 Bft)
08.10.2022 20:00 10,1 C 15,2 C 8,9 C 9,5 C 8,4 C 0,0 C 82 % 90 % 1022,5 hPa 0,0 l/m 0,0 km/h (0 Bft) N 0,00 h 7,2 C 8,4 C 0,0 km/h (0 Bft)
08.10.2022 21:00 9,1 C 15,2 C 8,1 C 8,8 C 8,1 C 0,0 C 84 % 91 % 1023,2 hPa 0,0 l/m 0,0 km/h (0 Bft) N 0,00 h 6,5 C 8,1 C 0,0 km/h (0 Bft)
08.10.2022 22:00 8,3 C 15,2 C 7,2 C 7,9 C 7,1 C 0,0 C 85 % 92 % 1024,3 hPa 0,0 l/m 0,0 km/h (0 Bft) N 0,00 h 5,9 C 7,1 C 0,0 km/h (0 Bft)
08.10.2022 23:00 7,2 C 15,2 C 6,2 C 6,8 C 5,9 C 0,0 C 86 % 92 % 1024,4 hPa 0,0 l/m 0,0 km/h (0 Bft) N 0,00 h 5,0 C 5,9 C 0,0 km/h (0 Bft)
09.10.2022 00:00 6,3 C 15,1 C 5,5 C 5,9 C 5,2 C 0,0 C 87 % 93 % 1025,1 hPa 0,0 l/m 0,0 km/h (0 Bft) N 0,00 h 4,2 C 5,2 C 0,0 km/h (0 Bft)
09.10.2022 01:00 5,5 C 14,9 C 4,8 C 5,1 C 4,2 C 0,0 C 87 % 93 % 1025,3 hPa 0,0 l/m 0,0 km/h (0 Bft) N 0,00 h 3,6 C 4,2 C 0,0 km/h (0 Bft)
09.10.2022 02:00 5,3 C 14,8 C 4,6 C 5,0 C 4,5 C 0,0 C 88 % 94 % 1025,6 hPa 0,0 l/m 0,0 km/h (0 Bft) N 0,00 h 3,4 C 4,5 C 0,0 km/h (0 Bft)
09.10.2022 03:00 4,9 C 14,7 C 4,3 C 4,6 C 4,1 C 0,0 C 88 % 94 % 1025,7 hPa 0,0 l/m 0,0 km/h (0 Bft) N 0,00 h 3,1 C 4,1 C 0,0 km/h (0 Bft)
09.10.2022 04:00 4,8 C 14,6 C 4,2 C 4,5 C 4,1 C 0,0 C 88 % 94 % 1026,1 hPa 0,0 l/m 0,0 km/h (0 Bft) N 0,00 h 2,9 C 4,1 C 0,0 km/h (0 Bft)
09.10.2022 05:00 3,9 C 14,4 C 3,2 C 3,5 C 2,8 C 0,0 C 88 % 94 % 1026,6 hPa 0,0 l/m 0,0 km/h (0 Bft) N 0,00 h 2,1 C 2,8 C 0,0 km/h (0 Bft)
09.10.2022 06:00 3,1 C 14,2 C 2,6 C 2,6 C 1,8 C 0,0 C 88 % 94 % 1026,8 hPa 0,0 l/m 0,0 km/h (0 Bft) N 0,00 h 1,3 C 1,8 C 0,0 km/h (0 Bft)
09.10.2022 07:00 2,4 C 14,1 C 2,1 C 2,1 C 1,3 C 0,0 C 89 % 94 % 1027,4 hPa 0,0 l/m 0,0 km/h (0 Bft) N 0,00 h 0,8 C 1,3 C 0,0 km/h (0 Bft)
09.10.2022 08:00 2,5 C 13,9 C 2,5 C 2,6 C 2,5 C 0,2 C 89 % 95 % 1027,5 hPa 0,0 l/m 0,0 km/h (0 Bft) N 0,00 h 0,8 C 2,5 C 0,0 km/h (0 Bft)
09.10.2022 09:00 3,4 C 13,9 C 4,1 C 4,8 C 4,8 C 1,5 C 88 % 95 % 1028,2 hPa 0,0 l/m 0,0 km/h (0 Bft) N 0,00 h 1,6 C 4,8 C 0,0 km/h (0 Bft)
09.10.2022 10:00 5,6 C 13,8 C 6,8 C 8,6 C 8,6 C 3,0 C 89 % 95 % 1028,2 hPa 0,0 l/m 0,0 km/h (0 Bft) N 0,10 h 3,9 C 8,6 C 0,0 km/h (0 Bft)
09.10.2022 11:00 7,8 C 13,7 C 8,9 C 10,4 C 10,4 C 2,6 C 88 % 95 % 1028,0 hPa 0,0 l/m 0,6 km/h (0 Bft) N-NO 0,00 h 6,0 C 10,4 C 1,0 km/h (0 Bft)
09.10.2022 12:00 11,7 C 13,5 C 11,0 C 14,8 C 14,8 C 3,2 C 82 % 89 % 1027,5 hPa 0,0 l/m 2,3 km/h (1 Bft) NO 0,33 h 8,7 C 14,8 C 4,4 km/h (1 Bft)
09.10.2022 13:00 13,9 C 13,5 C 12,4 C 19,7 C 19,7 C 5,8 C 68 % 77 % 1026,7 hPa 0,0 l/m 2,6 km/h (1 Bft) NO 1,00 h 8,0 C 19,7 C 5,4 km/h (1 Bft)
09.10.2022 14:00 14,9 C 13,6 C 13,5 C 20,3 C 20,3 C 5,5 C 63 % 72 % 1025,8 hPa 0,0 l/m 3,0 km/h (1 Bft) O-NO 1,00 h 8,0 C 20,3 C 3,5 km/h (1 Bft)
09.10.2022 15:00 15,3 C 13,8 C 14,3 C 20,1 C 20,1 C 4,8 C 62 % 70 % 1024,8 hPa 0,0 l/m 2,3 km/h (1 Bft) O-NO 0,83 h 8,1 C 20,1 C 3,8 km/h (1 Bft)
09.10.2022 16:00 15,6 C 13,9 C 14,4 C 16,2 C 16,2 C 0,6 C 57 % 66 % 1024,5 hPa 0,0 l/m 3,5 km/h (1 Bft) NO 0,00 h 7,0 C 16,2 C 3,9 km/h (1 Bft)
09.10.2022 17:00 15,1 C 13,9 C 13,3 C 15,1 C 15,1 C 0,1 C 56 % 67 % 1024,0 hPa 0,0 l/m 1,7 km/h (1 Bft) NO 0,00 h 6,4 C 15,1 C 1,7 km/h (1 Bft)
09.10.2022 18:00 13,4 C 14,0 C 11,3 C 13,2 C 12,8 C 0,0 C 61 % 72 % 1023,8 hPa 0,0 l/m 0,8 km/h (0 Bft) NO 0,00 h 5,9 C 12,8 C 0,9 km/h (0 Bft)
09.10.2022 19:00 10,9 C 14,0 C 9,0 C 10,4 C 9,5 C 0,0 C 67 % 78 % 1023,8 hPa 0,0 l/m 0,0 km/h (0 Bft) N 0,00 h 5,0 C 9,5 C 0,0 km/h (0 Bft)
09.10.2022 20:00 9,6 C 14,1 C 7,6 C 9,2 C 8,4 C 0,0 C 74 % 83 % 1023,9 hPa 0,0 l/m 0,0 km/h (0 Bft) N 0,00 h 5,1 C 8,4 C 0,0 km/h (0 Bft)
09.10.2022 21:00 7,8 C 14,2 C 6,1 C 7,2 C 6,0 C 0,0 C 76 % 86 % 1023,4 hPa 0,0 l/m 0,0 km/h (0 Bft) N 0,00 h 3,9 C 6,0 C 0,0 km/h (0 Bft)
09.10.2022 22:00 6,3 C 14,2 C 5,2 C 6,0 C 5,2 C 0,0 C 82 % 90 % 1022,7 hPa 0,0 l/m 0,0 km/h (0 Bft) N 0,00 h 3,4 C 5,2 C 0,0 km/h (0 Bft)
09.10.2022 23:00 5,3 C 14,1 C 4,3 C 4,9 C 4,1 C 0,0 C 84 % 91 % 1022,3 hPa 0,0 l/m 0,0 km/h (0 Bft) N 0,00 h 2,8 C 4,1 C 0,0 km/h (0 Bft)
Min-Datum _ 09.10.22 09.10.22 09.10.22 09.10.22 09.10.22 03.10.22 09.10.22 09.10.22 08.10.22 - 03.10.22 - - 09.10.22 09.10.22 03.10.22
_ Min-Zeit 07:55 12:00 07:40 07:40 07:45 00:00 16:32 16:32 06:45 - 00:00 - - 07:55 07:45 00:00
Minimum _ 2,2 C 13,5 C 2,0 C 1,9 C 1,1 C 0,0 C 53 % 64 % 1016,6 hPa - 0,0 km/h (0 Bft) - - 0,6 C 1,1 C 0,0 km/h (0 Bft)
Max-Datum _ 05.10.22 06.10.22 05.10.22 06.10.22 06.10.22 07.10.22 05.10.22 03.10.22 06.10.22 03.10.22 09.10.22 - 04.10.22 05.10.22 06.10.22 05.10.22
_ Max-Zeit 14:11 07:55 15:50 14:31 14:31 13:20 04:31 00:10 22:05 00:00 16:32 - 14:31 13:50 14:31 16:40
Maximum _ 20,7 C 16,2 C 19,1 C 26,0 C 26,0 C 8,0 C 89 % 95 % 1030,3 hPa 0,0 l/m 5,6 km/h
NO (1 Bft)
- 0,33 h 13,9 C 26,0 C 15,9 km/h
S (3 Bft)
Durchschnitt _ 11,7 C 14,8 C 10,8 C 12,6 C 12,3 C 1,1 C 80 % 87 % 1022,6 hPa #0,0 l/m 0,4 km/h (0 Bft) S #19:29 h 8,2 C 12,3 C 0,8 km/h (0 Bft)
2022 www.wetterstation-wechselburg.de